createdAt,value
2022-12-20T00:01:56.904Z,100912.16
2022-12-20T00:04:25.504Z,100901.06
2022-12-20T00:06:55.690Z,100902.03
2022-12-20T00:09:25.511Z,100895.22
2022-12-20T00:11:53.924Z,100893.59
2022-12-20T00:14:22.345Z,100888.53
2022-12-20T00:30:19.623Z,100877.84
2022-12-20T00:32:48.416Z,100876.22
2022-12-20T00:35:16.730Z,100876.34
2022-12-20T00:37:45.493Z,100867.97
2022-12-20T00:40:14.242Z,100863.72
2022-12-20T00:42:42.670Z,100861.16
2022-12-20T00:45:12.900Z,100861.19
2022-12-20T00:47:42.637Z,100859.50
2022-12-20T00:50:11.886Z,100864.72
2022-12-20T00:52:41.029Z,100861.44
2022-12-20T00:55:10.378Z,100866.75
2022-12-20T00:57:38.600Z,100861.66
2022-12-20T01:00:08.263Z,100860.84
2022-12-20T01:02:37.093Z,100864.31
2022-12-20T01:05:07.791Z,100861.81
2022-12-20T01:07:36.207Z,100860.16
2022-12-20T01:10:04.999Z,100855.94
2022-12-20T01:12:33.384Z,100864.56
2022-12-20T01:15:01.954Z,100855.16
2022-12-20T01:17:30.481Z,100856.13
2022-12-20T01:19:58.884Z,100859.63
2022-12-20T01:22:28.633Z,100861.44
2022-12-20T01:24:56.845Z,100858.97
2022-12-20T01:27:25.082Z,100860.81
2022-12-20T01:29:53.963Z,100860.88
2022-12-20T01:32:23.206Z,100853.28
2022-12-20T01:34:51.642Z,100851.59
2022-12-20T01:37:19.958Z,100843.84
2022-12-20T01:39:49.721Z,100838.75
2022-12-20T01:42:18.153Z,100844.78
2022-12-20T01:44:57.742Z,100829.34
2022-12-20T01:47:28.338Z,100821.63
2022-12-20T01:49:58.783Z,100831.94
2022-12-20T01:52:32.625Z,100826.81
2022-12-20T01:55:09.969Z,100819.09
2022-12-20T01:57:42.732Z,100816.53
2022-12-20T02:00:12.257Z,100815.72
2022-12-20T02:02:45.033Z,100813.19
2022-12-20T02:05:14.829Z,100802.91
2022-12-20T02:07:49.805Z,100808.13
2022-12-20T02:10:22.306Z,100799.59
2022-12-20T02:13:00.202Z,100804.81
2022-12-20T02:15:47.253Z,100798.84
2022-12-20T02:18:23.614Z,100791.13
2022-12-20T02:21:15.299Z,100775.75
2022-12-20T02:24:02.307Z,100789.50
2022-12-20T02:27:05.256Z,100778.38
2022-12-20T02:29:38.127Z,100786.13
2022-12-20T02:32:14.134Z,100786.97
2022-12-20T02:34:43.793Z,100787.03
2022-12-20T02:37:12.590Z,100778.47
2022-12-20T02:39:43.658Z,100763.88
2022-12-20T02:42:15.307Z,100761.34
2022-12-20T02:45:05.977Z,100746.75
2022-12-20T02:47:41.139Z,100748.50
2022-12-20T02:50:11.433Z,100747.66
2022-12-20T02:52:42.627Z,100751.09
2022-12-20T02:55:11.873Z,100748.50
2022-12-20T02:57:47.500Z,100742.50
2022-12-20T03:00:18.637Z,100745.97
2022-12-20T03:03:06.948Z,100743.38
2022-12-20T03:05:39.762Z,100744.28
2022-12-20T03:08:08.927Z,100756.31
2022-12-20T03:10:37.439Z,100758.88
2022-12-20T03:13:06.036Z,100759.81
2022-12-20T03:15:36.555Z,100759.84
2022-12-20T03:18:07.444Z,100759.00
2022-12-20T03:20:35.811Z,100765.03
2022-12-20T03:23:04.479Z,100755.59
2022-12-20T03:25:33.623Z,100757.31
2022-12-20T03:28:03.503Z,100751.31
2022-12-20T03:30:32.955Z,100746.19
2022-12-20T03:33:01.212Z,100754.81
2022-12-20T03:35:30.919Z,100746.19
2022-12-20T03:37:59.734Z,100742.75
2022-12-20T03:40:28.949Z,100747.06
2022-12-20T03:42:58.071Z,100749.69
2022-12-20T03:45:26.773Z,100730.75
2022-12-20T03:47:55.864Z,100726.47
2022-12-20T03:50:26.503Z,100723.91
2022-12-20T03:52:56.474Z,100729.94
2022-12-20T03:55:24.826Z,100724.78
2022-12-20T03:57:53.186Z,100722.22
2022-12-20T04:00:32.597Z,100723.97
2022-12-20T04:03:20.962Z,100725.69
2022-12-20T04:05:49.428Z,100723.97
2022-12-20T04:08:19.185Z,100729.16
2022-12-20T04:11:11.907Z,100736.94
2022-12-20T04:13:43.501Z,100729.19
2022-12-20T04:16:12.980Z,100719.72
2022-12-20T04:18:41.367Z,100705.06
2022-12-20T04:21:10.976Z,100699.91
2022-12-20T04:23:45.316Z,100688.75
2022-12-20T04:26:14.630Z,100693.06
2022-12-20T04:28:43.399Z,100690.47
2022-12-20T04:31:16.098Z,100687.91
2022-12-20T04:33:47.374Z,100684.44
2022-12-20T04:36:16.414Z,100682.72
2022-12-20T04:38:46.756Z,100681.03
2022-12-20T04:41:22.782Z,100681.03
2022-12-20T04:43:58.552Z,100675.84
2022-12-20T04:46:35.801Z,100672.44
2022-12-20T04:49:05.524Z,100669.88
2022-12-20T04:51:37.679Z,100678.44
2022-12-20T04:54:09.529Z,100662.09
2022-12-20T04:56:44.566Z,100660.38
2022-12-20T04:59:18.614Z,100659.50
2022-12-20T05:01:50.979Z,100664.72
2022-12-20T05:04:37.779Z,100656.09
2022-12-20T05:07:07.123Z,100655.25
2022-12-20T05:09:39.486Z,100662.13
2022-12-20T05:12:08.583Z,100659.56
2022-12-20T05:14:36.989Z,100662.13
2022-12-20T05:17:05.619Z,100659.56
2022-12-20T05:19:34.273Z,100650.09
2022-12-20T05:22:20.980Z,100651.78
2022-12-20T05:25:24.083Z,100656.97
2022-12-20T05:27:56.587Z,100655.28
2022-12-20T05:30:27.948Z,100658.72
2022-12-20T05:32:56.898Z,100663.03
2022-12-20T05:35:26.032Z,100667.31
2022-12-20T05:38:01.397Z,100650.97
2022-12-20T05:40:31.253Z,100634.63
2022-12-20T05:43:00.856Z,100620.81
2022-12-20T05:45:48.448Z,100637.16
2022-12-20T05:48:21.050Z,100632.88
2022-12-20T05:50:50.215Z,100634.56
2022-12-20T05:53:28.214Z,100633.72
2022-12-20T05:56:02.582Z,100639.75
2022-12-20T05:58:34.248Z,100644.94
2022-12-20T06:01:07.290Z,100643.22
2022-12-20T06:03:41.588Z,100650.09
2022-12-20T06:06:15.552Z,100647.53
2022-12-20T06:08:47.771Z,100644.06
2022-12-20T06:11:29.670Z,100640.59
2022-12-20T06:14:05.946Z,100650.06
2022-12-20T06:16:37.019Z,100652.69
2022-12-20T06:19:06.950Z,100652.69
2022-12-20T06:21:36.847Z,100646.66
2022-12-20T06:24:08.481Z,100646.66
2022-12-20T06:26:57.435Z,100652.69
2022-12-20T06:29:27.719Z,100644.06
2022-12-20T06:32:05.476Z,100655.25
2022-12-20T06:34:34.228Z,100645.81
2022-12-20T06:37:03.584Z,100638.91
2022-12-20T06:39:35.163Z,100642.38
2022-12-20T06:42:07.193Z,100639.81
2022-12-20T06:44:37.269Z,100641.50
2022-12-20T06:47:06.698Z,100637.22
2022-12-20T06:49:34.995Z,100644.94
2022-12-20T06:52:08.442Z,100637.22
2022-12-20T06:54:47.200Z,100647.53
2022-12-20T06:57:17.352Z,100641.53
2022-12-20T06:59:48.771Z,100636.34
2022-12-20T07:02:18.099Z,100632.94
2022-12-20T07:04:46.588Z,100632.94
2022-12-20T07:07:15.354Z,100631.19
2022-12-20T07:09:43.933Z,100634.63
2022-12-20T07:12:13.392Z,100629.47
2022-12-20T07:14:43.180Z,100623.44
2022-12-20T07:17:12.695Z,100626.00
2022-12-20T07:19:45.590Z,100615.69
2022-12-20T07:22:17.275Z,100624.28
2022-12-20T07:24:45.715Z,100619.13
2022-12-20T07:27:14.117Z,100632.91
2022-12-20T07:29:45.645Z,100632.03
2022-12-20T07:32:14.716Z,100630.34
2022-12-20T07:34:44.064Z,100638.94
2022-12-20T07:37:12.538Z,100629.50
2022-12-20T07:39:42.430Z,100626.03
2022-12-20T07:42:12.732Z,100643.28
2022-12-20T07:44:45.872Z,100641.53
2022-12-20T07:47:14.233Z,100646.72
2022-12-20T07:49:45.624Z,100634.66
2022-12-20T07:52:15.398Z,100632.06
2022-12-20T07:54:47.117Z,100638.09
2022-12-20T07:57:17.586Z,100635.53
2022-12-20T07:59:51.870Z,100627.75
2022-12-20T08:02:27.146Z,100635.50
2022-12-20T08:04:57.361Z,100645.88
2022-12-20T08:07:26.252Z,100637.22
2022-12-20T08:09:54.589Z,100644.09
2022-12-20T08:12:24.207Z,100645.84
2022-12-20T08:14:56.591Z,100638.06
2022-12-20T08:17:25.139Z,100636.34
2022-12-20T08:19:53.575Z,100636.34
2022-12-20T08:22:23.266Z,100635.47
2022-12-20T08:24:51.671Z,100631.16
2022-12-20T08:27:20.217Z,100625.09
2022-12-20T08:29:49.043Z,100628.53
2022-12-20T08:32:18.992Z,100629.38
2022-12-20T08:34:49.061Z,100631.09
2022-12-20T08:37:18.869Z,100629.34
2022-12-20T08:39:47.322Z,100637.13
2022-12-20T08:42:16.171Z,100637.13
2022-12-20T08:44:45.515Z,100631.94
2022-12-20T08:47:14.031Z,100627.66
2022-12-20T08:49:47.827Z,100635.41
2022-12-20T08:52:16.785Z,100630.22
2022-12-20T08:54:45.353Z,100629.38
2022-12-20T08:57:14.116Z,100620.72
2022-12-20T08:59:42.635Z,100622.47
2022-12-20T09:02:11.234Z,100617.28
2022-12-20T09:04:39.808Z,100623.34
2022-12-20T09:07:09.849Z,100610.41
2022-12-20T09:09:39.014Z,100607.81
2022-12-20T09:12:07.940Z,100597.47
2022-12-20T09:14:36.508Z,100600.91
2022-12-20T09:17:04.871Z,100594.03
2022-12-20T09:19:34.222Z,100604.38
2022-12-20T09:22:02.679Z,100598.31
2022-12-20T09:24:32.819Z,100600.06
2022-12-20T09:27:01.212Z,100603.47
2022-12-20T09:29:35.304Z,100605.19
2022-12-20T09:32:04.210Z,100600.94
2022-12-20T09:34:32.606Z,100603.47
2022-12-20T09:37:01.051Z,100601.72
2022-12-20T09:39:29.685Z,100600.84
2022-12-20T09:42:00.502Z,100599.94
2022-12-20T09:44:33.158Z,100593.00
2022-12-20T09:47:10.805Z,100592.97
2022-12-20T09:49:42.980Z,100596.34
2022-12-20T09:52:36.230Z,100591.13
2022-12-20T09:55:16.578Z,100594.53
2022-12-20T09:58:02.662Z,100589.28
2022-12-20T10:00:37.266Z,100591.84
2022-12-20T10:03:10.405Z,100585.81
2022-12-20T10:05:48.286Z,100583.22
2022-12-20T10:08:26.590Z,100593.59
2022-12-20T10:10:57.492Z,100591.00
2022-12-20T10:13:44.544Z,100595.34
2022-12-20T10:16:35.015Z,100578.94
2022-12-20T10:19:16.201Z,100575.53
2022-12-20T10:21:57.395Z,100571.28
2022-12-20T10:24:31.733Z,100572.16
2022-12-20T10:27:12.444Z,100563.44
2022-12-20T10:29:42.881Z,100572.88
2022-12-20T10:32:15.187Z,100575.34
2022-12-20T10:34:48.955Z,100569.25
2022-12-20T10:37:17.578Z,100577.91
2022-12-20T10:39:49.833Z,100564.94
2022-12-20T10:42:37.634Z,100571.00
2022-12-20T10:45:36.419Z,100563.19
2022-12-20T10:48:08.098Z,100558.88
2022-12-20T10:50:36.642Z,100554.59
2022-12-20T10:53:29.854Z,100560.59
2022-12-20T10:56:18.873Z,100557.09
2022-12-20T10:58:55.030Z,100557.03
2022-12-20T11:01:31.515Z,100548.34
2022-12-20T11:04:02.979Z,100549.19
2022-12-20T11:06:43.395Z,100550.81
2022-12-20T11:09:28.994Z,100549.69
2022-12-20T11:12:07.420Z,100536.66
2022-12-20T11:14:39.696Z,100534.00
2022-12-20T11:17:26.261Z,100539.16
2022-12-20T11:20:13.755Z,100533.94
2022-12-20T11:22:54.110Z,100530.56
2022-12-20T11:25:37.665Z,100513.50
2022-12-20T11:28:29.887Z,100513.63
2022-12-20T11:31:07.296Z,100518.84
2022-12-20T11:33:52.166Z,100525.78
2022-12-20T11:36:34.466Z,100513.75
2022-12-20T11:39:14.341Z,100512.91
2022-12-20T11:41:51.829Z,100512.91
2022-12-20T11:44:30.073Z,100504.94
2022-12-20T11:47:14.449Z,100507.41
2022-12-20T11:49:54.503Z,100495.41
2022-12-20T11:52:36.156Z,100492.81
2022-12-20T11:55:18.066Z,100489.34
2022-12-20T11:58:17.425Z,100465.13
2022-12-20T12:00:51.394Z,100470.28
2022-12-20T12:03:26.972Z,100466.00
2022-12-20T12:06:01.423Z,100467.78
2022-12-20T12:08:39.849Z,100457.44
2022-12-20T12:11:40.330Z,100465.38
2022-12-20T12:14:07.265Z,100465.47
2022-12-20T12:16:40.779Z,100477.56
2022-12-20T12:19:12.790Z,100465.47
2022-12-20T12:21:47.304Z,100453.38
2022-12-20T12:24:25.143Z,100462.91
2022-12-20T12:26:54.061Z,100470.69
2022-12-20T12:29:23.672Z,100465.59
2022-12-20T12:31:58.599Z,100453.59
2022-12-20T12:34:42.083Z,100451.09
2022-12-20T12:37:37.300Z,100462.41
2022-12-20T12:40:29.088Z,100456.41
2022-12-20T12:43:23.382Z,100463.38
2022-12-20T12:45:56.373Z,100463.38
2022-12-20T12:48:30.756Z,100467.75
2022-12-20T12:51:02.727Z,100475.50
2022-12-20T12:53:37.651Z,100486.69
2022-12-20T12:56:44.555Z,100487.56
2022-12-20T12:59:39.811Z,100497.94
2022-12-20T13:02:29.336Z,100491.09
2022-12-20T13:05:01.498Z,100496.31
2022-12-20T13:07:44.696Z,100497.22
2022-12-20T13:10:50.594Z,100498.09
2022-12-20T13:13:25.259Z,100491.25
2022-12-20T13:16:11.033Z,100498.19
2022-12-20T13:18:39.840Z,100501.63
2022-12-20T13:21:43.256Z,100505.03
2022-12-20T13:24:42.558Z,100505.03
2022-12-20T13:27:27.302Z,100510.22
2022-12-20T13:30:22.518Z,100511.03
2022-12-20T13:33:13.676Z,100518.78
2022-12-20T13:35:57.605Z,100514.50
2022-12-20T13:38:57.360Z,100511.03
2022-12-20T13:41:38.858Z,100504.16
2022-12-20T13:44:41.596Z,100496.44
2022-12-20T13:47:31.540Z,100503.34
2022-12-20T13:50:03.131Z,100505.91
2022-12-20T13:52:32.642Z,100504.22
2022-12-20T13:55:03.281Z,100511.97
2022-12-20T13:57:34.603Z,100515.44
2022-12-20T14:00:07.942Z,100506.84
2022-12-20T14:02:44.308Z,100505.13
2022-12-20T14:05:20.982Z,100501.66
2022-12-20T14:07:56.482Z,100496.53
2022-12-20T14:10:29.394Z,100500.88
2022-12-20T14:12:58.710Z,100509.53
2022-12-20T14:15:31.198Z,100507.84
2022-12-20T14:18:07.322Z,100499.25
2022-12-20T14:20:38.270Z,100493.22
2022-12-20T14:23:12.392Z,100483.75
2022-12-20T14:25:45.294Z,100488.94
2022-12-20T14:28:31.721Z,100474.28
2022-12-20T14:31:03.648Z,100463.09
2022-12-20T14:33:37.203Z,100454.50
2022-12-20T14:36:20.323Z,100460.56
2022-12-20T14:38:50.049Z,100461.41
2022-12-20T14:41:35.230Z,100466.63
2022-12-20T14:44:18.015Z,100461.44
2022-12-20T14:46:51.650Z,100471.81
2022-12-20T14:49:24.976Z,100462.31
2022-12-20T14:52:05.315Z,100461.47
2022-12-20T14:55:07.342Z,100465.78
2022-12-20T14:57:25.589Z,100459.75
2022-12-20T15:00:03.511Z,100450.28
2022-12-20T15:02:40.722Z,100447.72
2022-12-20T15:05:54.089Z,100446.00
2022-12-20T15:08:28.710Z,100451.16
2022-12-20T15:11:01.308Z,100455.47
2022-12-20T15:13:33.309Z,100458.91
2022-12-20T15:16:04.873Z,100462.38
2022-12-20T15:18:34.457Z,100462.38
2022-12-20T15:21:06.946Z,100455.47
2022-12-20T15:23:36.986Z,100463.22
2022-12-20T15:26:05.952Z,100477.88
2022-12-20T15:28:35.111Z,100479.59
2022-12-20T15:31:04.885Z,100476.13
2022-12-20T15:33:35.855Z,100482.97
2022-12-20T15:36:04.381Z,100480.38
2022-12-20T15:39:11.251Z,100466.63
2022-12-20T15:41:24.849Z,100464.91
2022-12-20T15:43:56.967Z,100453.69
2022-12-20T15:46:25.871Z,100458.88
2022-12-20T15:48:55.101Z,100464.88
2022-12-20T15:51:29.052Z,100447.66
2022-12-20T15:53:58.043Z,100446.78
2022-12-20T15:56:29.781Z,100444.19
2022-12-20T15:58:58.793Z,100439.91
2022-12-20T16:01:36.234Z,100440.78
2022-12-20T16:04:09.515Z,100441.63
2022-12-20T16:06:38.106Z,100438.19
2022-12-20T16:09:07.400Z,100440.78
2022-12-20T16:11:37.454Z,100433.84
2022-12-20T16:14:06.213Z,100439.06
2022-12-20T16:16:39.690Z,100431.28
2022-12-20T16:19:08.517Z,100431.28
2022-12-20T16:21:41.861Z,100420.94
2022-12-20T16:24:13.878Z,100427.81
2022-12-20T16:26:44.513Z,100417.47
2022-12-20T16:29:13.064Z,100421.81
2022-12-20T16:31:43.433Z,100422.69
2022-12-20T16:34:14.947Z,100423.50
2022-12-20T16:36:44.220Z,100414.03
2022-12-20T16:39:12.915Z,100415.75
2022-12-20T16:41:44.934Z,100408.84
2022-12-20T16:44:15.780Z,100409.72
2022-12-20T16:46:45.567Z,100420.91
2022-12-20T16:49:20.005Z,100409.72
2022-12-20T16:51:50.999Z,100400.25
2022-12-20T16:54:21.754Z,100405.41
2022-12-20T16:56:55.679Z,100404.53
2022-12-20T16:59:24.571Z,100406.25
2022-12-20T17:01:54.319Z,100399.38
2022-12-20T17:04:24.031Z,100403.72
2022-12-20T17:06:52.553Z,100406.25
2022-12-20T17:12:15.160Z,100389.88
2022-12-20T17:14:44.864Z,100384.69
2022-12-20T17:17:13.635Z,100387.28
2022-12-20T17:19:42.446Z,100379.53
2022-12-20T17:24:58.347Z,100384.72
2022-12-20T17:27:28.123Z,100384.75
2022-12-20T17:29:56.350Z,100396.78
2022-12-20T17:32:26.279Z,100393.31
2022-12-20T17:34:55.471Z,100393.28
2022-12-20T17:37:24.749Z,100386.41
2022-12-20T17:39:53.309Z,100379.47
2022-12-20T17:42:27.069Z,100383.78
2022-12-20T17:45:01.101Z,100384.66
2022-12-20T17:47:29.390Z,100374.34
2022-12-20T17:49:58.327Z,100382.94
2022-12-20T17:52:26.663Z,100383.81
2022-12-20T17:54:55.208Z,100378.66
2022-12-20T17:57:23.623Z,100364.84
2022-12-20T17:59:52.100Z,100357.13
2022-12-20T18:02:24.032Z,100364.00
2022-12-20T18:04:52.876Z,100364.00
2022-12-20T18:07:21.536Z,100370.06
2022-12-20T18:09:51.227Z,100372.59
2022-12-20T18:12:19.976Z,100375.19
2022-12-20T18:14:49.934Z,100371.72
2022-12-20T18:17:18.316Z,100375.13
2022-12-20T18:19:48.159Z,100373.38
2022-12-20T18:22:16.621Z,100375.13
2022-12-20T18:24:44.910Z,100375.13
2022-12-20T18:27:13.828Z,100381.19
2022-12-20T18:29:42.514Z,100379.44
2022-12-20T18:32:11.061Z,100382.84
2022-12-20T18:34:39.491Z,100377.69
2022-12-20T18:37:09.322Z,100379.44
2022-12-20T18:39:37.853Z,100365.63
2022-12-20T18:42:06.839Z,100350.16
2022-12-20T18:44:36.431Z,100342.38
2022-12-20T18:47:04.986Z,100340.69
2022-12-20T18:49:33.500Z,100342.44
2022-12-20T18:52:01.825Z,100345.03
2022-12-20T18:54:32.352Z,100340.72
2022-12-20T18:57:01.005Z,100350.22
2022-12-20T18:59:29.411Z,100352.78
2022-12-20T19:01:58.359Z,100356.22
2022-12-20T19:04:27.046Z,100345.00
2022-12-20T19:06:55.758Z,100348.44
2022-12-20T19:09:24.495Z,100340.69
2022-12-20T19:11:57.360Z,100328.59
2022-12-20T19:14:26.645Z,100332.06
2022-12-20T19:16:55.658Z,100336.34
2022-12-20T19:19:24.214Z,100340.69
2022-12-20T19:21:53.455Z,100328.63
2022-12-20T19:24:22.082Z,100329.47
2022-12-20T19:26:50.466Z,100318.28
2022-12-20T19:29:20.725Z,100314.00
2022-12-20T19:31:49.165Z,100320.06
2022-12-20T19:34:17.617Z,100318.34
2022-12-20T19:36:48.454Z,100325.22
2022-12-20T19:39:20.171Z,100325.22
2022-12-20T19:42:15.596Z,100323.53
2022-12-20T19:44:38.421Z,100329.56
2022-12-20T19:47:07.357Z,100322.69
2022-12-20T19:49:36.960Z,100319.22
2022-12-20T19:52:05.908Z,100326.09
2022-12-20T19:54:35.295Z,100320.06
2022-12-20T19:57:03.857Z,100325.22
2022-12-20T19:59:33.199Z,100305.38
2022-12-20T20:02:03.125Z,100307.94
2022-12-20T20:04:32.240Z,100310.53
2022-12-20T20:07:01.264Z,100314.84
2022-12-20T20:09:30.336Z,100311.38
2022-12-20T20:11:58.802Z,100304.50
2022-12-20T20:14:27.335Z,100313.13
2022-12-20T20:16:55.875Z,100306.19
2022-12-20T20:19:26.385Z,100313.97
2022-12-20T20:21:55.023Z,100311.38
2022-12-20T20:24:23.596Z,100309.66
2022-12-20T20:26:52.092Z,100304.50
2022-12-20T20:29:22.263Z,100312.25
2022-12-20T20:31:51.672Z,100303.63
2022-12-20T20:34:21.741Z,100297.59
2022-12-20T20:36:51.912Z,100303.63
2022-12-20T20:39:20.565Z,100295.03
2022-12-20T20:41:49.308Z,100299.31
2022-12-20T20:44:17.959Z,100310.53
2022-12-20T20:46:47.220Z,100297.59
2022-12-20T20:49:15.653Z,100297.56
2022-12-20T20:51:43.849Z,100294.97
2022-12-20T20:54:13.701Z,100294.06
2022-12-20T20:56:43.171Z,100294.03
2022-12-20T20:59:17.313Z,100269.03
2022-12-20T21:01:47.194Z,100271.63
2022-12-20T21:04:16.042Z,100261.34
2022-12-20T21:06:46.163Z,100251.00
2022-12-20T21:09:16.680Z,100249.31
2022-12-20T21:11:45.338Z,100259.69
2022-12-20T21:14:14.639Z,100258.84
2022-12-20T21:16:43.417Z,100267.47
2022-12-20T21:19:12.422Z,100259.72
2022-12-20T21:21:41.140Z,100260.59
2022-12-20T21:24:09.660Z,100267.53
2022-12-20T21:26:39.666Z,100270.97
2022-12-20T21:29:08.380Z,100270.97
2022-12-20T21:31:37.466Z,100261.47
2022-12-20T21:34:06.010Z,100248.53
2022-12-20T21:36:34.675Z,100258.00
2022-12-20T21:39:03.673Z,100252.00
2022-12-20T21:41:33.032Z,100246.84
2022-12-20T21:44:03.097Z,100236.50
2022-12-20T21:46:33.152Z,100231.31
2022-12-20T21:49:01.699Z,100235.63
2022-12-20T21:51:31.659Z,100229.56
2022-12-20T21:54:01.447Z,100223.50
2022-12-20T21:56:31.605Z,100232.16
2022-12-20T21:59:00.191Z,100231.31
2022-12-20T22:01:31.334Z,100233.09
2022-12-20T22:04:02.463Z,100243.44
2022-12-20T22:06:31.689Z,100234.84
2022-12-20T22:09:00.643Z,100233.16
2022-12-20T22:11:29.617Z,100227.09
2022-12-20T22:13:59.797Z,100234.00
2022-12-20T22:16:32.024Z,100241.75
2022-12-20T22:19:01.611Z,100230.56
2022-12-20T22:21:32.472Z,100224.53
2022-12-20T22:24:02.137Z,100217.66
2022-12-20T22:26:33.877Z,100240.03
2022-12-20T22:29:05.718Z,100240.03
2022-12-20T22:31:36.802Z,100231.38
2022-12-20T22:34:06.390Z,100219.34
2022-12-20T22:36:35.113Z,100217.66
2022-12-20T22:39:03.475Z,100219.41
2022-12-20T22:41:35.024Z,100220.28
2022-12-20T22:44:04.084Z,100216.81
2022-12-20T22:46:33.485Z,100217.66
2022-12-20T22:49:03.750Z,100214.19
2022-12-20T22:51:33.809Z,100220.22
2022-12-20T22:54:02.524Z,100216.72
2022-12-20T22:56:31.707Z,100217.56
2022-12-20T22:59:00.326Z,100219.28
2022-12-20T23:01:28.935Z,100222.75
2022-12-20T23:03:57.512Z,100212.41
2022-12-20T23:06:27.276Z,100207.28
2022-12-20T23:08:55.756Z,100198.69
2022-12-20T23:11:42.884Z,100196.97
2022-12-20T23:14:31.148Z,100195.25
2022-12-20T23:17:00.205Z,100188.31
2022-12-20T23:19:28.881Z,100185.75
2022-12-20T23:22:16.762Z,100187.47
2022-12-20T23:24:45.651Z,100185.75
2022-12-20T23:27:14.461Z,100171.94
2022-12-20T23:29:42.836Z,100172.78
2022-12-20T23:32:11.287Z,100165.88
2022-12-20T23:34:39.926Z,100159.00
2022-12-20T23:37:10.209Z,100158.94
2022-12-20T23:39:39.573Z,100148.63
2022-12-20T23:42:08.336Z,100150.34
2022-12-20T23:44:36.881Z,100136.56
2022-12-20T23:47:05.935Z,100140.91
2022-12-20T23:49:34.694Z,100131.47
2022-12-20T23:52:03.053Z,100129.75
2022-12-20T23:54:32.928Z,100127.19
2022-12-20T23:57:01.663Z,100129.75
2022-12-20T23:59:31.147Z,100136.66
